Terminal Aerodrome Forecast
Issued by NWS Corpus Christi, TX

Home | Current Version | Previous Version | Text Only | Print | Product List | Glossary On
Versions: 1 2 3 4 5 6 7 8 9 10 11 12 13 14 15 16 17
000
FTUS44 KCRP 301100
TAFVCT
TAF
KVCT 301120Z 3012/3112 17005KT P6SM SCT011 OVC025
      TEMPO 3012/3014 5SM BR BKN011 OVC025
     FM301400 17012KT P6SM BKN012 OVC025
     FM301600 16014KT P6SM BKN025 OVC035
     FM302100 15012KT P6SM SCT030 BKN200
     FM310200 13006KT P6SM BKN012 OVC200
     FM310600 15005KT 4SM BR OVC007=

USA.gov is the U.S. government's official web portal to all federal, state and local government web resources and services.